Terminal Aerodrome Forecast
Issued by NWS Flagstaff, AZ

Home | Current Version | Previous Version | Text Only | Print | Product List | Glossary On
Versions: 1 2 3 4 5 6 7 8 9 10 11 12 13 14 15 16 17 18 19 20
362
FTUS45 KFGZ 290544
TAFFLG
TAF
KFLG 290544Z 2906/3006 24005KT P6SM BKN040
     FM291400 23010G15KT P6SM SCT050
     FM291800 25012G24KT P6SM BKN040 PROB30 2918/2924 4SM -SHRA
      BKN030
     FM300300 VRB03KT P6SM SCT045=

USA.gov is the U.S. government's official web portal to all federal, state and local government web resources and services.